Time;durP1;ratioP1;P1;durP2;ratioP2;P2;SDS_P1;SDS_P2;PMS_P1;PMS_P2;Temp;Humidity;BMP_temperature;BMP_pressure;BME280_temperature;BME280_humidity;BME280_pressure;Samples;Min_cycle;Max_cycle;Signal;HPM_P1;HPM_P2
2022/02/22 00:01:22;;;;;;;1.57;1.40;;;;;;;13.53;47.98;96173.78;4866247;29;20206;-87
2022/02/22 00:03:49;;;;;;;3.47;1.57;;;;;;;18.59;47.95;97047.28;4858524;29;20199;-87
2022/02/22 00:06:19;;;;;;;2.70;1.40;;;;;;;11.52;47.93;95900.13;4847916;29;20203;-86
2022/02/22 00:08:47;;;;;;;2.67;1.53;;;;;;;12.83;48.08;96071.78;4848452;29;20222;-87
2022/02/22 00:11:14;;;;;;;1.63;1.20;;;;;;;14.55;47.67;96354.59;4833407;29;20211;-88
2022/02/22 00:13:41;;;;;;;1.37;1.20;;;;;;;17.59;48.13;96872.63;4830263;29;20610;-87
2022/02/22 00:16:14;;;;;;;1.67;1.30;;;;;;;14.58;48.12;96358.09;4859588;29;20235;-87
2022/02/22 00:18:42;;;;;;;1.50;1.17;;;;;;;15.68;47.67;96546.06;4865613;29;20246;-87
2022/02/22 00:21:09;;;;;;;2.13;1.53;;;;;;;16.65;47.93;96708.50;4865040;29;20249;-87
2022/02/22 00:23:36;;;;;;;2.30;1.40;;;;;;;14.40;47.67;96384.31;4861409;29;20215;-87
2022/02/22 00:26:03;;;;;;;2.03;1.50;;;;;;;13.91;47.66;96256.88;4833656;29;20203;-88
2022/02/22 00:28:30;;;;;;;2.50;1.50;;;;;;;14.22;48.01;96338.97;4852104;29;20222;-86
2022/02/22 00:30:57;;;;;;;1.40;1.30;;;;;;;12.59;47.44;96030.50;4841063;29;20212;-88
2022/02/22 00:33:24;;;;;;;3.97;1.40;;;;;;;14.30;48.06;96314.88;4864008;29;20230;-87
2022/02/22 00:35:51;;;;;;;1.57;1.40;;;;;;;11.90;47.81;95921.91;4834759;29;20209;-86
2022/02/22 00:38:18;;;;;;;1.60;1.47;;;;;;;18.61;47.87;97082.13;4855365;29;20222;-86
2022/02/22 00:40:47;;;;;;;2.13;1.50;;;;;;;11.89;47.32;95922.69;4862855;29;20598;-87
2022/02/22 00:43:14;;;;;;;2.13;1.40;;;;;;;16.29;47.70;96669.13;4831963;29;20211;-89
2022/02/22 00:45:41;;;;;;;1.63;1.40;;;;;;;12.66;47.44;96118.13;4865247;29;20253;-86
2022/02/22 00:48:08;;;;;;;2.87;1.20;;;;;;;13.38;47.29;96186.66;4864644;29;20225;-87
2022/02/22 00:50:35;;;;;;;1.70;1.30;;;;;;;16.29;47.69;96702.06;4864936;29;20653;-87
2022/02/22 00:53:02;;;;;;;1.50;1.37;;;;;;;18.52;48.11;97060.59;4854503;29;20210;-86
2022/02/22 00:55:29;;;;;;;1.53;1.30;;;;;;;14.35;47.70;96335.25;4848953;29;20289;-87
2022/02/22 00:57:56;;;;;;;2.13;1.43;;;;;;;17.81;47.93;96954.72;4853371;29;20725;-87
2022/02/22 01:00:23;;;;;;;1.80;1.40;;;;;;;17.43;47.89;96889.00;4833618;29;20608;-86
2022/02/22 01:02:50;;;;;;;2.93;1.43;;;;;;;11.63;47.79;95999.59;4859459;29;20255;-87
2022/02/22 01:05:16;;;;;;;1.53;1.27;;;;;;;14.46;48.04;96382.91;4852832;29;21379;-87
2022/02/22 01:07:43;;;;;;;1.63;1.23;;;;;;;14.91;47.78;96462.16;4859974;29;20195;-88
2022/02/22 01:10:10;;;;;;;1.40;1.30;;;;;;;17.47;47.61;96906.06;4840340;29;20250;-87
2022/02/22 01:12:37;;;;;;;2.30;1.40;;;;;;;13.28;47.96;96256.88;4857948;29;20199;-87
2022/02/22 01:15:04;;;;;;;1.97;1.27;;;;;;;15.46;47.88;96606.88;4864601;29;20218;-88
2022/02/22 01:17:31;;;;;;;1.23;1.13;;;;;;;17.57;48.39;96938.63;4856356;29;20279;-87
2022/02/22 01:19:59;;;;;;;1.47;1.10;;;;;;;17.79;47.99;96970.72;4840526;29;20274;-87
2022/02/22 01:22:26;;;;;;;1.63;1.40;;;;;;;10.51;47.68;95779.31;4864508;29;20290;-87
2022/02/22 01:24:53;;;;;;;1.63;1.23;;;;;;;18.58;48.17;97114.25;4852061;29;20207;-87
2022/02/22 01:27:20;;;;;;;1.47;1.30;;;;;;;16.35;47.89;96738.63;4831373;29;20203;-86
2022/02/22 01:29:47;;;;;;;2.97;1.30;;;;;;;14.14;47.90;96365.59;4866927;23;20247;-82
2022/02/22 01:32:19;;;;;;;1.93;1.40;;;;;;;16.87;47.68;96829.38;4833598;29;20338;-88
2022/02/22 01:34:46;;;;;;;1.93;1.30;;;;;;;16.55;48.65;96785.03;4830677;29;20272;-89
2022/02/22 01:37:18;;;;;;;1.60;1.50;;;;;;;15.17;47.76;96620.91;4811190;29;20224;-88
2022/02/22 01:39:45;;;;;;;1.20;1.10;;;;;;;7.53;48.47;95310.47;4853453;29;20246;-89
2022/02/22 01:42:12;;;;;;;2.37;1.63;;;;;;;10.73;48.47;95781.97;4855447;29;20196;-88
2022/02/22 01:44:43;;;;;;;2.47;1.30;;;;;;;15.62;47.83;96687.66;4827230;29;20212;-88
2022/02/22 01:47:12;;;;;;;1.27;1.17;;;;;;;12.80;48.19;96152.31;4839859;29;20212;-88
2022/02/22 01:49:48;;;;;;;1.30;1.20;;;;;;;12.73;47.60;96143.63;4824268;29;20327;-87
2022/02/22 01:52:15;;;;;;;1.77;1.50;;;;;;;7.75;48.00;95284.00;4845605;29;20584;-81
2022/02/22 01:54:47;;;;;;;1.40;1.20;;;;;;;13.24;48.15;96257.53;4847030;29;20646;-80
2022/02/22 01:57:17;;;;;;;2.20;1.27;;;;;;;15.36;47.96;96605.59;4839533;29;20208;-85
2022/02/22 01:59:44;;;;;;;2.10;1.60;;;;;;;13.98;48.35;96369.97;4837090;29;20232;-87
2022/02/22 02:02:12;;;;;;;1.40;1.30;;;;;;;17.30;48.19;96939.28;4833196;29;20200;-86
2022/02/22 02:04:42;;;;;;;1.57;1.33;;;;;;;16.41;47.85;96915.53;4827415;29;20212;-87
2022/02/22 02:07:15;;;;;;;1.30;1.20;;;;;;;14.54;47.99;96469.97;4855357;29;20692;-90
2022/02/22 02:09:47;;;;;;;1.83;1.20;;;;;;;12.51;47.73;96220.78;4841308;29;20622;-86
2022/02/22 02:12:17;;;;;;;2.13;1.33;;;;;;;9.57;47.54;95608.66;4855352;29;20315;-87
2022/02/22 02:14:44;;;;;;;1.70;1.40;;;;;;;15.81;47.69;96679.97;4847915;29;20207;-88
2022/02/22 02:17:19;;;;;;;1.50;1.20;;;;;;;8.07;47.73;95361.31;4830741;29;20594;-87
2022/02/22 02:19:46;;;;;;;1.00;1.00;;;;;;;10.43;47.45;95789.03;4835780;29;20239;-80
2022/02/22 02:22:15;;;;;;;1.57;1.30;;;;;;;15.89;47.83;96701.38;4839553;29;20207;-81
2022/02/22 02:24:42;;;;;;;1.33;1.23;;;;;;;15.60;47.70;96656.38;4862579;29;20208;-81
2022/02/22 02:27:09;;;;;;;1.50;1.20;;;;;;;18.64;47.62;97175.53;4840077;29;20219;-80
2022/02/22 02:29:36;;;;;;;2.53;1.20;;;;;;;17.39;47.64;96958.25;4823679;29;20243;-80
2022/02/22 02:32:03;;;;;;;1.70;1.40;;;;;;;17.39;47.90;96973.50;4809803;29;20209;-82
2022/02/22 02:34:30;;;;;;;2.10;1.27;;;;;;;17.80;47.40;97061.41;4824894;29;20212;-78
2022/02/22 02:36:57;;;;;;;1.70;1.20;;;;;;;18.69;47.61;97194.38;4813351;29;20200;-81
2022/02/22 02:39:28;;;;;;;1.80;1.40;;;;;;;14.85;47.48;96532.75;4844932;29;20712;-89
2022/02/22 02:41:55;;;;;;;1.40;1.17;;;;;;;16.13;47.42;96760.59;4796915;29;20445;-88
2022/02/22 02:44:24;;;;;;;1.90;1.37;;;;;;;14.13;47.61;96535.66;4825381;29;20291;-88
2022/02/22 02:46:52;;;;;;;1.93;1.47;;;;;;;12.35;47.76;96180.63;4833677;29;20233;-91
2022/02/22 02:49:19;;;;;;;1.30;1.20;;;;;;;14.17;46.86;96476.00;4845187;29;20677;-88
2022/02/22 02:51:48;;;;;;;1.20;1.07;;;;;;;18.53;47.79;97175.16;4875350;29;20219;-90
2022/02/22 02:54:15;;;;;;;1.90;1.30;;;;;;;18.70;47.83;97214.81;4858977;29;20698;-89
2022/02/22 02:56:45;;;;;;;2.20;1.20;;;;;;;12.99;47.65;96232.09;4860269;29;20226;-89
2022/02/22 02:59:12;;;;;;;1.23;1.13;;;;;;;8.91;47.37;95530.44;4831013;29;20311;-89
2022/02/22 03:01:42;;;;;;;1.57;1.37;;;;;;;7.98;47.27;95389.28;4867483;29;20219;-80
2022/02/22 03:04:08;;;;;;;1.27;1.10;;;;;;;13.92;47.40;96402.56;4831902;29;20736;-83
2022/02/22 03:06:39;;;;;;;2.03;1.30;;;;;;;14.16;47.42;96444.84;4819178;29;20243;-80
2022/02/22 03:09:06;;;;;;;2.33;1.20;;;;;;;17.61;47.48;97036.13;4844874;29;20306;-82
2022/02/22 03:11:33;;;;;;;1.07;1.03;;;;;;;17.62;47.62;97053.13;4859399;29;20234;-81
2022/02/22 03:14:00;;;;;;;1.47;1.37;;;;;;;18.71;47.79;97241.97;4855859;29;20203;-81
2022/02/22 03:16:26;;;;;;;1.20;1.10;;;;;;;18.71;47.89;97233.50;4841625;29;20650;-81
2022/02/22 03:18:53;;;;;;;1.33;1.23;;;;;;;14.03;47.05;96460.28;4842133;29;20228;-84
2022/02/22 03:21:21;;;;;;;1.20;1.07;;;;;;;11.93;47.59;96078.91;4841825;29;20254;-81
2022/02/22 03:23:51;;;;;;;1.53;1.30;;;;;;;18.72;47.29;97258.13;4836950;29;20267;-81
2022/02/22 03:26:17;;;;;;;2.00;1.20;;;;;;;14.25;47.66;96479.75;4849493;29;20732;-80
2022/02/22 03:28:44;;;;;;;1.77;1.30;;;;;;;18.72;47.58;97247.94;4838838;29;20315;-81
2022/02/22 03:31:11;;;;;;;1.47;1.23;;;;;;;15.41;47.64;96696.94;4845061;29;20195;-78
2022/02/22 03:33:40;;;;;;;1.70;1.17;;;;;;;18.71;47.73;97259.78;4836111;29;20573;-80
2022/02/22 03:36:07;;;;;;;2.50;1.20;;;;;;;10.62;46.68;95997.47;4842562;29;20291;-81
2022/02/22 03:38:43;;;;;;;0.93;0.93;;;;;;;18.40;47.55;97221.34;4854214;29;20232;-83
2022/02/22 03:41:10;;;;;;;1.20;1.10;;;;;;;18.69;47.40;97283.47;4843998;29;20235;-80
2022/02/22 03:43:57;;;;;;;2.33;1.20;;;;;;;18.72;47.38;97298.84;4860117;29;20207;-82
2022/02/22 03:46:30;;;;;;;1.80;1.47;;;;;;;12.40;47.75;96258.09;4860385;29;20208;-80
2022/02/22 03:48:56;;;;;;;1.67;1.20;;;;;;;17.29;47.99;97064.53;4838708;29;20666;-81
2022/02/22 03:51:27;;;;;;;1.90;1.40;;;;;;;17.59;47.76;97150.41;4844381;29;20637;-81
2022/02/22 03:54:00;;;;;;;0.97;0.97;;;;;;;8.75;47.79;95723.31;4858609;29;20203;-83
2022/02/22 03:56:38;;;;;;;1.40;1.30;;;;;;;9.37;47.38;95709.66;4858988;29;20215;-82
2022/02/22 03:59:19;;;;;;;1.20;1.10;;;;;;;18.68;47.88;97310.59;4807053;29;20781;-88
2022/02/22 04:01:46;;;;;;;1.73;1.20;;;;;;;14.82;47.83;96648.97;4856057;29;20231;-90
2022/02/22 04:04:13;;;;;;;1.17;1.10;;;;;;;14.29;47.63;96575.94;4835580;29;20379;-88
2022/02/22 04:06:40;;;;;;;1.40;1.30;;;;;;;14.16;47.68;96567.75;4857965;29;20211;-88
2022/02/22 04:09:08;;;;;;;0.97;0.93;;;;;;;8.73;47.70;95739.88;4843759;29;20664;-89
2022/02/22 04:11:38;;;;;;;1.67;1.10;;;;;;;14.52;47.62;96637.56;4843965;29;20265;-88
2022/02/22 04:14:07;;;;;;;1.57;1.20;;;;;;;8.50;47.87;95607.78;4842784;29;20265;-88
2022/02/22 04:16:34;;;;;;;1.20;1.10;;;;;;;17.22;47.64;97116.72;4833913;29;20232;-88
2022/02/22 04:19:03;;;;;;;1.13;1.00;;;;;;;15.97;47.43;96934.00;4825921;29;20255;-87
2022/02/22 04:21:30;;;;;;;1.37;1.27;;;;;;;15.94;48.04;96907.66;4837919;29;20702;-88
2022/02/22 04:23:56;;;;;;;1.17;1.00;;;;;;;14.95;47.73;96820.66;4810610;29;20221;-88
2022/02/22 04:26:23;;;;;;;1.30;1.07;;;;;;;13.18;47.76;96555.78;4824093;29;20213;-88
2022/02/22 04:28:52;;;;;;;1.23;1.13;;;;;;;17.44;47.92;97180.28;4810149;29;20232;-89
2022/02/22 04:31:19;;;;;;;1.53;1.20;;;;;;;14.15;47.76;96799.31;4826144;29;20213;-82
2022/02/22 04:33:46;;;;;;;1.30;1.10;;;;;;;18.63;47.81;97380.84;4821712;29;20292;-82
2022/02/22 04:36:13;;;;;;;1.17;1.07;;;;;;;17.89;48.58;97265.94;4841630;29;20281;-80
2022/02/22 04:38:42;;;;;;;1.40;1.30;;;;;;;11.71;47.90;96264.09;4839742;29;20230;-81
2022/02/22 04:41:11;;;;;;;0.90;0.90;;;;;;;9.14;47.58;95760.31;4844110;29;20281;-82
2022/02/22 04:43:38;;;;;;;0.97;0.97;;;;;;;13.71;47.48;96548.94;4858000;29;20572;-80
2022/02/22 04:46:05;;;;;;;1.20;1.10;;;;;;;17.43;47.70;97195.44;4844309;29;20211;-82
2022/02/22 04:48:32;;;;;;;1.03;0.90;;;;;;;12.63;47.33;96458.19;4859924;29;20601;-80
2022/02/22 04:51:03;;;;;;;1.40;1.23;;;;;;;12.47;47.42;96459.09;4846564;29;20271;-81
2022/02/22 04:53:32;;;;;;;2.37;1.00;;;;;;;7.67;47.42;95580.19;4856414;29;20223;-83
2022/02/22 04:55:59;;;;;;;1.37;1.20;;;;;;;16.06;47.66;96981.66;4842526;29;20208;-80
2022/02/22 04:58:28;;;;;;;1.20;1.10;;;;;;;15.04;47.04;96784.78;4840639;29;20318;-80
2022/02/22 05:00:57;;;;;;;1.30;1.20;;;;;;;18.69;47.66;97426.00;4852525;29;20706;-81
2022/02/22 05:03:24;;;;;;;1.70;1.20;;;;;;;18.69;47.42;97431.97;4826914;29;20584;-80
2022/02/22 05:05:53;;;;;;;1.47;1.23;;;;;;;17.76;48.02;97268.81;4834978;29;20670;-81
2022/02/22 05:08:20;;;;;;;1.60;1.30;;;;;;;16.03;47.87;96971.41;4834921;29;20220;-81
2022/02/22 05:10:47;;;;;;;1.23;1.13;;;;;;;16.61;47.38;97134.47;4842771;29;20228;-80
2022/02/22 05:13:14;;;;;;;1.30;1.20;;;;;;;12.18;47.56;96370.38;4825921;29;21046;-79
2022/02/22 05:15:45;;;;;;;1.20;1.10;;;;;;;16.22;47.80;97060.06;4833585;29;20625;-79
2022/02/22 05:18:11;;;;;;;1.20;1.10;;;;;;;18.68;47.66;97452.28;4825823;29;20253;-79
2022/02/22 05:20:54;;;;;;;1.93;1.20;;;;;;;17.72;47.96;97296.59;4822190;29;20225;-79
2022/02/22 05:23:35;;;;;;;1.40;1.30;;;;;;;17.90;48.28;97335.47;4854411;29;20552;-79
2022/02/22 05:26:06;;;;;;;1.47;1.13;;;;;;;16.81;48.01;97143.78;4835965;29;20218;-80
2022/02/22 05:28:35;;;;;;;1.30;1.20;;;;;;;17.38;47.91;97242.66;4837376;29;20611;-80
2022/02/22 05:31:11;;;;;;;1.80;1.30;;;;;;;15.72;48.06;96955.72;4824792;29;20279;-79
2022/02/22 05:33:38;;;;;;;1.47;1.30;;;;;;;14.57;47.66;96768.41;4840371;29;20240;-80
2022/02/22 05:36:07;;;;;;;1.20;1.10;;;;;;;14.24;47.74;96713.00;4840506;29;20281;-79
2022/02/22 05:38:34;;;;;;;1.30;1.20;;;;;;;18.63;47.94;97475.00;4826594;29;20236;-83
2022/02/22 05:41:02;;;;;;;2.03;1.13;;;;;;;13.69;47.29;96729.78;4840996;29;20225;-84
2022/02/22 05:43:31;;;;;;;1.23;1.13;;;;;;;17.07;47.85;97281.13;4825542;29;20212;-80
2022/02/22 05:46:04;;;;;;;1.30;1.10;;;;;;;15.78;47.82;97055.63;4815155;29;20220;-82
2022/02/22 05:48:34;;;;;;;1.50;1.40;;;;;;;15.61;47.61;97012.63;4839675;29;20595;-80
2022/02/22 05:51:01;;;;;;;1.40;1.20;;;;;;;13.47;47.98;96701.78;4843628;29;20207;-80
2022/02/22 05:53:28;;;;;;;1.80;1.10;;;;;;;18.62;47.81;97490.22;4848146;29;20612;-80
2022/02/22 05:55:54;;;;;;;1.30;1.20;;;;;;;18.11;47.55;97420.25;4842533;29;20200;-80
2022/02/22 05:58:21;;;;;;;2.23;1.23;;;;;;;17.89;48.51;97394.75;4850688;29;20227;-81
2022/02/22 06:00:48;;;;;;;1.93;1.40;;;;;;;17.80;48.09;97404.53;4873029;29;20357;-80
2022/02/22 06:03:15;;;;;;;1.20;1.10;;;;;;;18.61;47.40;97550.44;4863574;29;20263;-81
2022/02/22 06:05:42;;;;;;;1.20;1.10;;;;;;;16.56;47.89;97200.22;4846800;29;20713;-81
2022/02/22 06:08:08;;;;;;;1.23;1.13;;;;;;;17.69;48.02;97388.84;4837638;29;20227;-80
2022/02/22 06:10:35;;;;;;;1.30;1.20;;;;;;;16.06;47.75;97115.97;4833639;29;20208;-81
2022/02/22 06:13:01;;;;;;;1.57;1.30;;;;;;;18.60;47.49;97575.81;4823682;29;20222;-80
2022/02/22 06:15:28;;;;;;;4.87;1.90;;;;;;;16.83;47.33;97281.75;4823970;29;20690;-82
2022/02/22 06:17:55;;;;;;;2.33;1.50;;;;;;;17.90;47.11;97468.53;4825423;29;20220;-81
2022/02/22 06:20:21;;;;;;;2.27;1.63;;;;;;;17.48;46.11;97389.59;4857723;29;20782;-80
2022/02/22 06:22:48;;;;;;;2.43;1.73;;;;;;;17.92;46.57;97491.47;4826479;29;20247;-78
2022/02/22 06:25:14;;;;;;;4.50;1.67;;;;;;;17.53;46.26;97403.38;4842372;29;20613;-83
2022/02/22 06:27:51;;;;;;;3.20;1.57;;;;;;;17.67;46.88;97425.13;4857991;29;20239;-79
2022/02/22 06:30:19;;;;;;;4.13;1.60;;;;;;;18.09;47.32;97495.63;4842680;29;20232;-78
2022/02/22 06:32:46;;;;;;;2.13;1.57;;;;;;;17.32;46.98;97375.31;4843652;29;20235;-80
2022/02/22 06:35:13;;;;;;;2.20;1.30;;;;;;;17.79;47.33;97454.50;4860739;29;20239;-80
2022/02/22 06:37:39;;;;;;;4.60;1.60;;;;;;;17.92;47.20;97478.78;4845345;29;20232;-79
2022/02/22 06:40:06;;;;;;;3.93;1.70;;;;;;;17.71;47.37;97434.66;4868766;29;20250;-78
2022/02/22 06:42:36;;;;;;;3.23;1.50;;;;;;;17.90;47.45;97462.56;4844449;29;20307;-80
2022/02/22 06:45:04;;;;;;;4.77;1.70;;;;;;;17.73;47.34;97438.09;4842438;29;20251;-78
2022/02/22 06:47:31;;;;;;;1.80;1.40;;;;;;;18.08;47.47;97512.53;4871991;29;20287;-78
2022/02/22 06:49:57;;;;;;;1.57;1.40;;;;;;;17.68;47.57;97440.44;4858478;29;20259;-80
2022/02/22 06:52:28;;;;;;;2.97;1.40;;;;;;;18.30;47.44;97546.50;4860541;29;20208;-78
2022/02/22 06:54:55;;;;;;;3.40;1.50;;;;;;;17.18;47.40;97350.16;4839129;29;20299;-82
2022/02/22 06:57:22;;;;;;;2.30;1.33;;;;;;;18.33;47.64;97561.91;4858685;29;20291;-77
2022/02/22 06:59:48;;;;;;;2.50;1.40;;;;;;;18.35;47.28;97567.94;4832111;29;20332;-77
2022/02/22 07:02:15;;;;;;;5.47;1.80;;;;;;;18.63;47.64;97615.00;4827550;29;20236;-79
2022/02/22 07:04:41;;;;;;;5.97;1.83;;;;;;;18.16;47.43;97535.75;4844843;29;20291;-76
2022/02/22 07:07:08;;;;;;;3.80;1.50;;;;;;;18.63;47.01;97637.91;4847437;29;20305;-78
2022/02/22 07:09:35;;;;;;;2.80;1.70;;;;;;;18.34;47.25;97589.06;4842418;29;20251;-78
2022/02/22 07:12:01;;;;;;;4.43;1.80;;;;;;;18.64;47.23;97642.19;4831162;29;20207;-80
2022/02/22 07:14:28;;;;;;;4.23;1.80;;;;;;;18.64;46.95;97643.84;4843925;29;20677;-78
2022/02/22 07:16:55;;;;;;;4.80;1.80;;;;;;;18.06;47.26;97544.66;4839619;29;20235;-78
2022/02/22 07:19:22;;;;;;;2.43;1.70;;;;;;;18.42;47.14;97605.59;4860872;29;20271;-76
2022/02/22 07:21:48;;;;;;;3.00;1.70;;;;;;;18.65;46.96;97656.63;4845656;29;20212;-78
2022/02/22 07:24:15;;;;;;;3.10;1.70;;;;;;;18.65;47.09;97653.25;4849613;29;20218;-76
2022/02/22 07:26:41;;;;;;;2.60;1.70;;;;;;;17.72;47.50;97489.75;4843292;29;20319;-76
2022/02/22 07:29:08;;;;;;;4.17;1.80;;;;;;;18.41;47.18;97619.97;4863787;23;20238;-84
2022/02/22 07:31:35;;;;;;;3.43;1.43;;;;;;;18.24;47.36;97596.31;4866025;29;20266;-86
2022/02/22 07:34:01;;;;;;;3.63;1.60;;;;;;;18.46;47.02;97646.50;4868546;29;20206;-85
2022/02/22 07:36:28;;;;;;;2.47;1.60;;;;;;;18.44;47.21;97643.00;4872996;29;20646;-86
2022/02/22 07:38:55;;;;;;;1.50;1.30;;;;;;;18.23;47.33;97608.13;4833528;29;20704;-89
2022/02/22 07:41:24;;;;;;;2.87;1.40;;;;;;;18.44;47.11;97645.53;4843562;29;20239;-86
2022/02/22 07:43:51;;;;;;;3.07;1.77;;;;;;;18.24;47.36;97605.66;4832130;29;20207;-85
2022/02/22 07:46:18;;;;;;;2.43;1.50;;;;;;;18.46;47.08;97664.31;4828554;29;20215;-86
2022/02/22 07:48:45;;;;;;;2.90;1.47;;;;;;;18.53;47.10;97668.00;4832361;29;20250;-85
2022/02/22 07:51:16;;;;;;;2.57;1.47;;;;;;;18.56;47.43;97688.50;4847219;29;20203;-86
2022/02/22 07:53:45;;;;;;;2.03;1.50;;;;;;;18.60;47.16;97696.31;4833210;29;20933;-86
2022/02/22 07:56:11;;;;;;;1.80;1.30;;;;;;;18.35;47.20;97665.47;4840953;29;20199;-86
2022/02/22 07:58:38;;;;;;;2.17;1.40;;;;;;;18.44;47.38;97680.31;4830783;29;20254;-86
2022/02/22 08:01:05;;;;;;;2.33;1.80;;;;;;;18.53;47.06;97706.16;4828902;29;20238;-85
2022/02/22 08:03:35;;;;;;;2.30;1.50;;;;;;;18.51;47.12;97711.19;4828356;29;20208;-86
2022/02/22 08:06:02;;;;;;;2.10;1.40;;;;;;;18.32;47.21;97680.59;4830899;29;20258;-86
2022/02/22 08:08:28;;;;;;;3.57;1.70;;;;;;;18.60;47.21;97725.97;4844814;29;20716;-85
2022/02/22 08:10:55;;;;;;;2.67;1.70;;;;;;;18.59;47.41;97742.06;4857655;29;20282;-85
2022/02/22 08:13:22;;;;;;;2.33;1.47;;;;;;;18.11;47.81;97649.13;4861786;29;20199;-86
2022/02/22 08:15:49;;;;;;;2.03;1.43;;;;;;;18.55;47.40;97733.41;4828464;29;20207;-87
2022/02/22 08:18:16;;;;;;;2.03;1.43;;;;;;;18.43;47.41;97730.34;4845766;29;20253;-85
2022/02/22 08:20:43;;;;;;;2.73;1.47;;;;;;;18.21;47.41;97700.47;4844064;29;20198;-85
2022/02/22 08:23:10;;;;;;;1.80;1.50;;;;;;;18.67;47.30;97782.31;4860635;29;20222;-86
2022/02/22 08:25:37;;;;;;;3.47;1.63;;;;;;;18.50;47.62;97762.88;4845012;29;20298;-87
2022/02/22 08:28:11;;;;;;;3.03;1.77;;;;;;;18.53;47.36;97763.00;4829836;29;20410;-86
2022/02/22 08:30:38;;;;;;;1.83;1.23;;;;;;;18.21;47.33;97714.88;4858793;29;20321;-85
2022/02/22 08:33:06;;;;;;;1.67;1.27;;;;;;;18.06;47.28;97692.16;4842603;29;20290;-86
2022/02/22 08:35:34;;;;;;;2.53;1.50;;;;;;;18.62;47.57;97785.47;4829318;29;20211;-87
2022/02/22 08:38:04;;;;;;;1.87;1.43;;;;;;;18.53;47.60;97755.38;4844404;29;20210;-87
2022/02/22 08:40:30;;;;;;;2.17;1.60;;;;;;;18.69;47.09;97812.94;4842985;29;20238;-86
2022/02/22 08:42:57;;;;;;;1.57;1.47;;;;;;;18.46;47.06;97773.72;4859146;29;20275;-84
2022/02/22 08:45:24;;;;;;;2.30;1.40;;;;;;;18.60;47.59;97798.13;4826201;29;20207;-84
2022/02/22 08:47:52;;;;;;;2.43;1.80;;;;;;;18.65;47.17;97803.44;4844879;29;20213;-84
2022/02/22 08:50:19;;;;;;;1.93;1.40;;;;;;;18.51;47.08;97787.53;4843781;29;20231;-84
2022/02/22 08:52:46;;;;;;;2.03;1.50;;;;;;;18.45;47.34;97782.19;4857937;29;20210;-85
2022/02/22 08:55:13;;;;;;;2.23;1.30;;;;;;;18.59;47.42;97814.19;4840387;29;20207;-86
2022/02/22 08:57:40;;;;;;;2.17;1.53;;;;;;;18.42;47.44;97792.22;4845859;29;20203;-85
2022/02/22 09:00:10;;;;;;;1.50;1.20;;;;;;;18.63;47.27;97822.84;4829847;29;20219;-85
2022/02/22 09:02:38;;;;;;;1.53;1.33;;;;;;;18.42;47.50;97802.41;4843365;29;20258;-85
2022/02/22 09:05:05;;;;;;;3.20;1.50;;;;;;;18.47;47.37;97808.53;4860120;29;20270;-85
2022/02/22 09:07:32;;;;;;;1.90;1.30;;;;;;;18.51;47.13;97810.44;4830115;29;20214;-85
2022/02/22 09:10:01;;;;;;;2.57;1.50;;;;;;;18.44;47.60;97805.84;4844503;29;20234;-85
2022/02/22 09:12:28;;;;;;;2.43;1.50;;;;;;;18.65;47.72;97831.44;4844798;29;20226;-84
2022/02/22 09:14:55;;;;;;;2.67;1.50;;;;;;;18.47;47.14;97806.00;4845200;29;20234;-86
2022/02/22 09:17:22;;;;;;;2.67;1.50;;;;;;;18.43;47.54;97799.03;4829738;29;20234;-85
2022/02/22 09:19:48;;;;;;;2.10;1.50;;;;;;;18.44;47.10;97815.19;4829383;29;20223;-85
2022/02/22 09:22:15;;;;;;;2.60;1.67;;;;;;;18.54;47.52;97823.31;4876083;29;20226;-85
2022/02/22 09:59:40;;;;;;;1.67;1.43;;;;;;;18.67;47.15;97891.78;5943428;23;21321;-85
2022/02/22 10:02:08;;;;;;;1.40;1.30;;;;;;;18.60;47.23;97876.16;4845055;29;20222;-85
2022/02/22 10:26:03;;;;;;;3.00;1.50;;;;;;;18.63;46.96;97872.09;5529377;23;20285;-85
2022/02/22 10:28:30;;;;;;;2.20;1.37;;;;;;;18.58;46.87;97862.47;4835517;29;20576;-85
2022/02/22 10:30:56;;;;;;;1.97;1.30;;;;;;;18.53;47.12;97852.09;4880097;29;20239;-85
2022/02/22 10:33:30;;;;;;;1.33;1.23;;;;;;;18.82;46.73;97906.88;4850851;29;20219;-84
2022/02/22 10:36:04;;;;;;;1.60;1.43;;;;;;;18.67;46.90;97889.25;4847641;29;20211;-85
2022/02/22 10:38:33;;;;;;;2.80;1.80;;;;;;;18.42;46.97;97848.19;4864270;29;20235;-85
2022/02/22 10:41:03;;;;;;;1.77;1.20;;;;;;;18.89;46.53;97930.16;4848840;29;20211;-85
2022/02/22 10:43:37;;;;;;;1.43;1.10;;;;;;;18.78;46.85;97908.44;4848355;29;20230;-85
2022/02/22 10:46:08;;;;;;;1.90;1.30;;;;;;;18.76;46.95;97911.69;4833098;29;20294;-85
2022/02/22 10:48:42;;;;;;;2.70;1.50;;;;;;;18.93;46.94;97937.16;4831419;29;20214;-86
2022/02/22 10:51:09;;;;;;;3.03;1.50;;;;;;;18.94;47.11;97940.53;4845672;29;20672;-85
2022/02/22 10:53:44;;;;;;;1.27;1.17;;;;;;;18.67;46.97;97906.19;4846781;29;20203;-86
2022/02/22 10:56:13;;;;;;;2.10;1.47;;;;;;;18.91;46.98;97946.38;4844932;29;20678;-85
2022/02/22 10:58:40;;;;;;;1.80;1.30;;;;;;;18.65;46.94;97902.72;4860796;29;20610;-85
2022/02/22 11:01:10;;;;;;;1.50;1.13;;;;;;;18.80;46.69;97932.28;4847140;29;20622;-85
2022/02/22 11:03:44;;;;;;;1.90;1.60;;;;;;;18.77;46.88;97926.19;4862310;29;20306;-87
2022/02/22 11:06:12;;;;;;;1.77;1.33;;;;;;;18.76;46.59;97920.22;4851814;29;20243;-84
2022/02/22 11:08:43;;;;;;;1.90;1.40;;;;;;;18.35;46.93;97858.84;4858508;29;20234;-86
2022/02/22 11:11:51;;;;;;;1.90;1.30;;;;;;;18.52;46.76;97887.66;4841898;29;20235;-84
2022/02/22 11:14:27;;;;;;;1.33;1.10;;;;;;;18.61;46.82;97895.72;4869896;29;20661;-85
2022/02/22 11:16:55;;;;;;;1.63;1.20;;;;;;;18.51;46.79;97866.44;4862924;29;20211;-87
2022/02/22 11:19:22;;;;;;;2.00;1.40;;;;;;;18.89;47.06;97939.50;4834415;29;20250;-85
2022/02/22 11:21:50;;;;;;;2.37;1.27;;;;;;;18.35;47.19;97828.31;4856309;29;20289;-86
2022/02/22 11:24:18;;;;;;;2.53;1.30;;;;;;;18.64;47.01;97886.56;4863669;29;20266;-86
2022/02/22 11:26:57;;;;;;;2.50;1.20;;;;;;;18.61;46.68;97886.41;4861033;29;20211;-86
2022/02/22 11:29:25;;;;;;;1.57;1.30;;;;;;;18.86;46.73;97922.38;4842235;29;20394;-85
2022/02/22 11:31:58;;;;;;;2.17;1.70;;;;;;;18.88;46.81;97935.16;4848580;29;20274;-85
2022/02/22 11:34:31;;;;;;;1.40;1.30;;;;;;;18.16;46.68;97805.38;4880131;29;20237;-87
2022/02/22 11:37:02;;;;;;;2.67;1.40;;;;;;;18.85;46.75;97922.31;4837050;29;20672;-87
2022/02/22 11:39:29;;;;;;;1.40;1.23;;;;;;;18.88;46.66;97942.81;4865254;29;20824;-84
2022/02/22 11:41:56;;;;;;;1.90;1.40;;;;;;;18.72;46.79;97903.06;4833205;29;20207;-85
2022/02/22 11:44:23;;;;;;;2.47;1.60;;;;;;;18.62;46.70;97887.28;4847880;29;20241;-85
2022/02/22 11:46:52;;;;;;;1.80;1.30;;;;;;;18.62;46.80;97889.84;4829429;29;20212;-86
2022/02/22 11:49:31;;;;;;;1.67;1.40;;;;;;;18.59;47.04;97875.28;4829903;29;20231;-87
2022/02/22 11:52:08;;;;;;;2.37;1.40;;;;;;;18.65;46.88;97887.44;4851718;29;20677;-85
2022/02/22 11:54:35;;;;;;;1.57;1.30;;;;;;;18.68;47.02;97900.31;4845669;29;20204;-86
2022/02/22 12:18:30;;;;;;;6.10;1.50;;;;;;;18.60;47.21;97871.06;5330809;23;20234;-84
2022/02/22 12:20:57;;;;;;;2.17;1.70;;;;;;;18.62;46.97;97877.13;4849974;29;20231;-84
2022/02/22 12:23:26;;;;;;;7.27;1.90;;;;;;;18.76;46.98;97904.94;4826639;29;20671;-85
2022/02/22 12:26:04;;;;;;;2.30;1.50;;;;;;;18.60;46.90;97868.53;4847060;29;20251;-84
2022/02/22 12:28:30;;;;;;;1.73;1.30;;;;;;;18.66;47.08;97884.06;4851351;29;20636;-84
2022/02/22 12:30:58;;;;;;;2.00;1.53;;;;;;;18.76;47.04;97894.75;4836876;29;20235;-83
2022/02/22 12:33:31;;;;;;;2.23;1.50;;;;;;;18.71;46.88;97898.75;4852854;29;20271;-84
2022/02/22 12:36:12;;;;;;;2.93;1.80;;;;;;;18.67;46.90;97885.81;4866336;29;20331;-84
2022/02/22 12:38:39;;;;;;;2.27;1.60;;;;;;;18.68;46.73;97880.78;4858078;29;20272;-84
2022/02/22 12:41:14;;;;;;;1.63;1.40;;;;;;;18.64;47.02;97871.28;4852579;29;20256;-83
2022/02/22 12:43:48;;;;;;;2.17;1.60;;;;;;;18.56;47.19;97852.22;4830949;29;20250;-84
2022/02/22 12:46:15;;;;;;;2.73;1.53;;;;;;;18.49;47.06;97834.94;4868585;29;20219;-84
2022/02/22 12:48:42;;;;;;;1.90;1.63;;;;;;;18.64;47.26;97867.84;4843056;29;20247;-84
2022/02/22 12:51:09;;;;;;;2.47;1.57;;;;;;;18.71;47.29;97872.44;4821424;29;20725;-87
2022/02/22 12:53:35;;;;;;;2.50;1.70;;;;;;;18.45;46.97;97829.66;4846303;29;20226;-84
2022/02/22 12:56:02;;;;;;;2.30;1.70;;;;;;;18.47;46.90;97843.31;4858184;29;20291;-85
2022/02/22 12:58:33;;;;;;;1.67;1.47;;;;;;;18.63;47.04;97876.31;4827560;29;20207;-84